Time;durP1;ratioP1;P1;durP2;ratioP2;P2;SDS_P1;SDS_P2;PMS_P1;PMS_P2;Temp;Humidity;BMP_temperature;BMP_pressure;BME280_temperature;BME280_humidity;BME280_pressure;Samples;Min_cycle;Max_cycle;Signal;HPM_P1;HPM_P2
2024/01/09 00:02:34;;;;;;;38.90;11.00;;;;;;;-12.57;57.13;102272.27;130375;1261;106248;-72
2024/01/09 00:05:40;;;;;;;44.60;12.60;;;;;;;-12.66;56.90;102277.69;130386;1261;106557;-75
2024/01/09 00:08:46;;;;;;;33.70;10.40;;;;;;;-12.71;56.60;102276.36;130323;1261;107757;-73
2024/01/09 00:11:52;;;;;;;36.20;10.40;;;;;;;-12.70;56.62;102280.99;130421;1261;106693;-73
2024/01/09 00:14:57;;;;;;;55.70;14.40;;;;;;;-12.71;56.81;102284.77;130403;1262;107917;-73
2024/01/09 00:18:03;;;;;;;42.00;13.00;;;;;;;-12.73;56.65;102290.17;130413;1261;108776;-73
2024/01/09 00:21:09;;;;;;;33.70;11.40;;;;;;;-12.75;56.81;102291.84;130195;1261;107505;-74
2024/01/09 00:24:14;;;;;;;46.40;13.50;;;;;;;-12.75;56.93;102298.34;130288;1259;108058;-74
2024/01/09 00:27:20;;;;;;;36.30;10.50;;;;;;;-12.76;56.74;102298.64;130345;1261;107499;-73
2024/01/09 00:30:25;;;;;;;22.30;8.80;;;;;;;-12.76;56.86;102300.53;130360;1262;106267;-72
2024/01/09 00:33:33;;;;;;;26.70;8.10;;;;;;;-12.83;56.86;102300.00;130415;1262;109050;-74
2024/01/09 00:36:44;;;;;;;29.90;9.30;;;;;;;-12.89;56.43;102302.38;130338;1258;107726;-73
2024/01/09 00:39:51;;;;;;;29.10;7.70;;;;;;;-12.95;56.43;102298.95;130348;1261;106114;-73
2024/01/09 00:42:57;;;;;;;31.90;9.50;;;;;;;-12.96;56.29;102295.31;130406;1261;106375;-75
2024/01/09 00:46:02;;;;;;;30.80;9.00;;;;;;;-12.98;56.46;102300.08;130334;1258;106335;-74
2024/01/09 00:49:08;;;;;;;28.30;7.90;;;;;;;-12.99;56.72;102299.17;130411;1258;106874;-73
2024/01/09 00:52:14;;;;;;;26.50;7.70;;;;;;;-12.99;56.68;102301.94;130369;1261;106702;-73
2024/01/09 00:55:19;;;;;;;26.70;9.30;;;;;;;-13.03;56.73;102300.27;130329;1257;106679;-74
2024/01/09 00:58:25;;;;;;;29.40;8.00;;;;;;;-13.05;56.42;102296.45;130357;1261;106150;-73
2024/01/09 01:01:31;;;;;;;27.00;8.90;;;;;;;-13.05;56.73;102289.08;130355;1261;106671;-72
2024/01/09 01:04:40;;;;;;;28.20;8.90;;;;;;;-13.09;56.14;102283.48;130403;1259;106366;-75
2024/01/09 01:07:46;;;;;;;28.30;8.40;;;;;;;-13.12;56.76;102282.54;130324;1261;106155;-73
2024/01/09 01:10:52;;;;;;;30.80;8.90;;;;;;;-13.10;56.39;102282.06;130357;1257;108638;-76
2024/01/09 01:13:58;;;;;;;29.80;8.80;;;;;;;-13.08;56.53;102278.70;130321;1261;108538;-74
2024/01/09 01:17:03;;;;;;;23.60;7.20;;;;;;;-13.05;56.37;102276.56;130396;1262;106075;-74
2024/01/09 01:20:11;;;;;;;33.20;9.30;;;;;;;-13.07;56.64;102269.64;130413;1261;106254;-74
2024/01/09 01:23:16;;;;;;;25.80;8.30;;;;;;;-13.09;56.60;102268.59;130400;1261;109161;-74
2024/01/09 01:26:22;;;;;;;25.90;8.40;;;;;;;-13.09;56.06;102262.58;130385;1261;108537;-74
2024/01/09 01:29:29;;;;;;;29.00;8.50;;;;;;;-13.13;56.20;102261.42;130388;1261;106485;-73
2024/01/09 01:32:34;;;;;;;26.40;9.10;;;;;;;-13.19;56.69;102250.48;130459;1259;107099;-73
2024/01/09 01:35:40;;;;;;;27.70;8.60;;;;;;;-13.20;56.43;102252.48;130339;1257;106490;-73
2024/01/09 01:38:46;;;;;;;23.20;8.70;;;;;;;-13.21;56.28;102253.49;130370;1261;106220;-74
2024/01/09 01:41:52;;;;;;;27.40;8.50;;;;;;;-13.20;56.34;102261.56;130381;1261;106527;-74
2024/01/09 01:44:58;;;;;;;43.60;11.80;;;;;;;-13.14;56.34;102268.23;130389;1258;106380;-73
2024/01/09 01:48:06;;;;;;;61.10;15.60;;;;;;;-13.12;56.70;102272.58;130384;1259;108734;-73
2024/01/09 01:51:11;;;;;;;53.30;15.60;;;;;;;-13.11;56.30;102274.32;130388;1257;106731;-75
2024/01/09 01:54:18;;;;;;;44.40;11.90;;;;;;;-13.10;56.51;102276.61;130401;1257;106292;-73
2024/01/09 01:57:24;;;;;;;44.10;10.70;;;;;;;-13.15;56.56;102276.95;130382;1261;106720;-74
2024/01/09 02:00:31;;;;;;;39.60;12.10;;;;;;;-13.24;56.35;102277.36;130368;1261;106731;-73
2024/01/09 02:03:37;;;;;;;43.00;12.60;;;;;;;-13.27;56.54;102271.46;130384;1259;108911;-75
2024/01/09 02:06:43;;;;;;;35.50;11.60;;;;;;;-13.26;56.49;102276.46;130366;1261;105750;-74
2024/01/09 02:09:51;;;;;;;38.30;10.50;;;;;;;-13.25;56.49;102275.63;130328;1262;107518;-73
2024/01/09 02:12:57;;;;;;;32.10;10.20;;;;;;;-13.30;55.98;102278.58;130404;1259;108586;-74
2024/01/09 02:16:03;;;;;;;35.20;10.30;;;;;;;-13.36;56.45;102283.55;130362;1261;106187;-73
2024/01/09 02:19:09;;;;;;;37.50;11.40;;;;;;;-13.31;56.37;102286.27;130376;1258;108780;-73
2024/01/09 02:22:15;;;;;;;34.10;11.00;;;;;;;-13.26;56.47;102288.11;130319;1261;106663;-74
2024/01/09 02:25:21;;;;;;;39.50;11.50;;;;;;;-13.21;56.28;102289.63;130359;1261;107326;-73
2024/01/09 02:28:31;;;;;;;33.80;9.80;;;;;;;-13.19;55.98;102293.10;130385;1258;106575;-73
2024/01/09 02:31:37;;;;;;;33.10;9.60;;;;;;;-13.19;56.20;102293.26;130385;1261;106272;-73
2024/01/09 02:34:44;;;;;;;31.70;10.00;;;;;;;-13.18;56.30;102288.52;130446;1261;106299;-73
2024/01/09 02:37:50;;;;;;;30.90;9.70;;;;;;;-13.17;56.02;102292.13;130400;1262;108703;-74
2024/01/09 02:40:56;;;;;;;29.00;10.20;;;;;;;-13.16;55.97;102294.91;130372;1261;108652;-73
2024/01/09 02:44:02;;;;;;;29.00;9.00;;;;;;;-13.24;56.16;102293.13;130352;1261;106194;-73
2024/01/09 02:47:07;;;;;;;33.90;10.80;;;;;;;-13.31;55.75;102298.73;130379;1261;108686;-73
2024/01/09 02:50:13;;;;;;;35.50;10.30;;;;;;;-13.32;55.93;102298.38;130458;1257;106746;-72
2024/01/09 02:53:19;;;;;;;34.10;10.30;;;;;;;-13.33;55.65;102306.56;130353;1261;106261;-74
2024/01/09 02:56:27;;;;;;;36.30;11.60;;;;;;;-13.33;55.70;102307.77;130337;1261;106557;-72
2024/01/09 02:59:32;;;;;;;37.60;11.90;;;;;;;-13.34;56.13;102301.77;130360;1261;106568;-74
2024/01/09 03:02:38;;;;;;;48.60;13.70;;;;;;;-13.35;55.77;102303.63;130358;1261;106661;-72
2024/01/09 03:05:44;;;;;;;39.60;13.00;;;;;;;-13.32;55.61;102311.05;130369;1261;106195;-73
2024/01/09 03:08:50;;;;;;;34.80;11.70;;;;;;;-13.33;55.91;102309.31;130328;1262;106521;-72
2024/01/09 03:11:55;;;;;;;42.70;12.00;;;;;;;-13.35;55.73;102310.79;130293;1261;108388;-74
2024/01/09 03:15:01;;;;;;;44.60;13.90;;;;;;;-13.34;56.27;102314.08;130357;1261;107486;-73
2024/01/09 03:18:07;;;;;;;39.00;11.30;;;;;;;-13.34;55.87;102315.61;130393;1259;107744;-73
2024/01/09 03:21:14;;;;;;;29.30;9.50;;;;;;;-13.35;55.66;102311.30;130356;1261;106494;-73
2024/01/09 03:24:22;;;;;;;30.10;9.30;;;;;;;-13.42;55.52;102309.20;130359;1257;107690;-74
2024/01/09 03:27:28;;;;;;;32.30;10.40;;;;;;;-13.50;55.72;102308.09;130378;1257;107709;-72
2024/01/09 03:30:34;;;;;;;29.70;10.50;;;;;;;-13.54;55.36;102306.60;130307;1273;107031;-75
2024/01/09 03:33:40;;;;;;;34.10;10.00;;;;;;;-13.53;55.33;102310.73;130359;1261;107733;-72
2024/01/09 03:36:46;;;;;;;28.20;9.70;;;;;;;-13.52;55.51;102312.80;130379;1259;230649;-74
2024/01/09 03:39:51;;;;;;;31.80;10.40;;;;;;;-13.51;55.33;102311.33;130390;1269;106101;-73
2024/01/09 03:42:57;;;;;;;34.60;9.90;;;;;;;-13.52;55.20;102307.03;130440;1261;108643;-73
2024/01/09 03:46:03;;;;;;;35.40;10.20;;;;;;;-13.55;55.42;102306.91;130316;1261;108852;-71
2024/01/09 03:49:09;;;;;;;36.10;10.60;;;;;;;-13.55;55.26;102308.27;130349;1261;106384;-72
2024/01/09 03:52:14;;;;;;;33.90;9.90;;;;;;;-13.51;55.79;102311.98;130390;1262;107048;-76
2024/01/09 03:55:20;;;;;;;39.30;11.50;;;;;;;-13.44;55.94;102313.94;130564;1262;106618;-76
2024/01/09 03:58:26;;;;;;;32.10;10.90;;;;;;;-13.43;55.64;102308.32;130468;1261;108614;-75
2024/01/09 04:01:31;;;;;;;44.20;13.50;;;;;;;-13.43;55.93;102308.66;130679;1259;106631;-75
2024/01/09 04:04:39;;;;;;;60.50;17.10;;;;;;;-13.41;55.65;102309.21;130527;1259;107182;-74
2024/01/09 04:07:45;;;;;;;45.70;14.90;;;;;;;-13.40;55.28;102315.92;130393;1259;107645;-75
2024/01/09 04:10:50;;;;;;;43.30;12.80;;;;;;;-13.44;55.47;102312.05;130325;1261;106554;-75
2024/01/09 04:13:56;;;;;;;48.00;14.90;;;;;;;-13.44;55.84;102313.61;130337;1262;108666;-75
2024/01/09 04:17:02;;;;;;;50.70;14.30;;;;;;;-13.47;54.93;102315.58;130324;1261;108746;-74
2024/01/09 04:20:12;;;;;;;42.10;14.10;;;;;;;-13.51;55.44;102320.55;130362;1261;106625;-74
2024/01/09 04:23:17;;;;;;;39.60;13.10;;;;;;;-13.51;55.17;102317.49;130269;1262;107083;-74
2024/01/09 04:26:23;;;;;;;40.20;13.40;;;;;;;-13.50;55.42;102311.34;130307;1259;106481;-75
2024/01/09 04:29:29;;;;;;;40.30;12.30;;;;;;;-13.54;55.54;102315.00;130320;1259;108739;-75
2024/01/09 04:32:34;;;;;;;47.10;13.70;;;;;;;-13.61;55.11;102315.61;130298;1259;107245;-73
2024/01/09 04:35:40;;;;;;;39.10;12.30;;;;;;;-13.65;54.94;102311.04;130351;1261;106325;-74
2024/01/09 04:38:46;;;;;;;36.80;13.00;;;;;;;-13.66;55.16;102311.34;130296;1258;106676;-74
2024/01/09 04:41:52;;;;;;;33.00;10.80;;;;;;;-13.65;55.22;102312.59;130330;1259;106181;-75
2024/01/09 04:44:58;;;;;;;42.70;12.00;;;;;;;-13.67;54.80;102310.46;130295;1259;109383;-74
2024/01/09 04:48:03;;;;;;;36.20;11.20;;;;;;;-13.70;54.95;102306.27;130250;1259;106195;-74
2024/01/09 04:51:09;;;;;;;50.00;14.00;;;;;;;-13.70;54.89;102308.48;130288;1261;108670;-74
2024/01/09 04:54:15;;;;;;;43.20;12.90;;;;;;;-13.65;55.02;102309.16;130416;1260;105420;-74
2024/01/09 04:57:21;;;;;;;43.50;13.50;;;;;;;-13.63;55.29;102308.54;130266;1258;107581;-77
2024/01/09 05:00:27;;;;;;;41.30;12.10;;;;;;;-13.68;54.91;102309.56;130267;1261;106240;-74
2024/01/09 05:03:33;;;;;;;45.70;13.20;;;;;;;-13.75;55.02;102301.62;130373;1262;108639;-76
2024/01/09 05:06:38;;;;;;;40.20;12.00;;;;;;;-13.75;55.48;102302.83;130267;1261;106019;-75
2024/01/09 05:09:44;;;;;;;44.70;13.10;;;;;;;-13.75;54.83;102300.11;130294;1261;108163;-75
2024/01/09 05:12:50;;;;;;;42.60;12.20;;;;;;;-13.76;54.84;102302.80;130329;1261;108711;-74
2024/01/09 05:15:56;;;;;;;35.70;11.80;;;;;;;-13.75;54.73;102306.25;130304;1261;106708;-76
2024/01/09 05:19:02;;;;;;;42.30;12.80;;;;;;;-13.72;54.89;102302.27;130362;1261;108403;-74
2024/01/09 05:22:07;;;;;;;51.50;14.70;;;;;;;-13.71;54.75;102301.92;130377;1261;108762;-75
2024/01/09 05:25:13;;;;;;;48.30;13.30;;;;;;;-13.75;54.46;102301.11;130319;1261;107504;-75
2024/01/09 05:28:19;;;;;;;46.10;12.70;;;;;;;-13.81;55.25;102301.45;130315;1261;108451;-74
2024/01/09 05:31:25;;;;;;;51.00;15.30;;;;;;;-13.81;55.16;102298.36;130352;1261;106867;-74
2024/01/09 05:34:31;;;;;;;46.60;15.00;;;;;;;-13.81;54.72;102296.98;130355;1259;108813;-75
2024/01/09 05:37:36;;;;;;;44.20;14.00;;;;;;;-13.88;54.72;102297.96;130332;1262;108725;-74
2024/01/09 05:40:42;;;;;;;45.50;14.10;;;;;;;-13.88;54.90;102296.09;130303;1261;106440;-75
2024/01/09 05:43:48;;;;;;;48.80;16.10;;;;;;;-13.82;54.89;102302.25;130325;1261;108632;-74
2024/01/09 05:46:53;;;;;;;49.70;14.90;;;;;;;-13.78;55.31;102302.40;130297;1259;108678;-74
2024/01/09 05:49:59;;;;;;;49.50;14.70;;;;;;;-13.79;54.77;102299.96;130382;1261;108040;-74
2024/01/09 05:53:05;;;;;;;44.50;15.40;;;;;;;-13.87;54.74;102295.61;130395;1259;106662;-74
2024/01/09 05:56:11;;;;;;;84.80;25.00;;;;;;;-13.94;54.93;102299.81;130295;1261;108699;-76
2024/01/09 05:59:16;;;;;;;56.00;18.70;;;;;;;-13.97;55.36;102304.31;130376;1261;108551;-75
2024/01/09 06:02:22;;;;;;;41.80;15.10;;;;;;;-13.97;54.77;102299.55;130422;1258;107643;-75
2024/01/09 06:05:28;;;;;;;48.90;15.90;;;;;;;-13.99;55.37;102302.02;130471;1259;108717;-74
2024/01/09 06:08:33;;;;;;;48.50;15.40;;;;;;;-14.00;55.20;102308.17;130296;1259;106983;-74
2024/01/09 06:11:39;;;;;;;48.50;14.70;;;;;;;-13.99;54.97;102308.02;130319;1261;106872;-74
2024/01/09 06:14:45;;;;;;;44.80;14.20;;;;;;;-13.95;54.82;102310.70;130322;1261;106538;-75
2024/01/09 06:17:51;;;;;;;44.20;14.00;;;;;;;-13.92;55.18;102310.14;130370;1271;106332;-75
2024/01/09 06:20:56;;;;;;;48.60;15.30;;;;;;;-13.86;54.87;102312.56;130468;1262;106516;-74
2024/01/09 06:24:03;;;;;;;55.00;16.70;;;;;;;-13.80;54.95;102313.09;130473;1271;108812;-75
2024/01/09 06:27:08;;;;;;;46.10;14.60;;;;;;;-13.81;54.68;102312.40;130533;1262;107014;-74
2024/01/09 06:30:15;;;;;;;52.20;16.00;;;;;;;-13.75;55.28;102316.17;130468;1262;108578;-75
2024/01/09 06:33:21;;;;;;;40.60;13.80;;;;;;;-13.70;55.11;102316.50;130401;1261;107693;-75
2024/01/09 06:36:27;;;;;;;48.70;16.00;;;;;;;-13.65;54.71;102320.78;130348;1261;106213;-73
2024/01/09 06:39:32;;;;;;;44.40;15.00;;;;;;;-13.58;55.31;102324.61;130300;1261;106720;-73
2024/01/09 06:42:39;;;;;;;51.00;14.90;;;;;;;-13.51;55.03;102333.40;130329;1259;108805;-75
2024/01/09 06:45:45;;;;;;;49.30;16.00;;;;;;;-13.50;55.49;102334.64;130323;1261;108355;-75
2024/01/09 06:48:50;;;;;;;46.10;15.10;;;;;;;-13.47;54.99;102334.04;130337;1261;106401;-75
2024/01/09 06:51:56;;;;;;;48.30;16.60;;;;;;;-13.45;55.39;102334.27;130348;1261;108619;-72
2024/01/09 06:55:02;;;;;;;42.90;14.90;;;;;;;-13.43;54.76;102335.36;130311;1259;109641;-73
2024/01/09 06:58:08;;;;;;;50.10;17.00;;;;;;;-13.42;55.08;102335.55;130272;1261;108635;-73
2024/01/09 07:01:14;;;;;;;57.50;16.10;;;;;;;-13.43;55.16;102340.48;130300;1261;108623;-74
2024/01/09 07:04:20;;;;;;;50.20;16.60;;;;;;;-13.42;55.53;102344.13;130271;1264;106268;-74
2024/01/09 07:07:26;;;;;;;62.20;18.50;;;;;;;-13.38;55.48;102344.75;130181;1264;108943;-75
2024/01/09 07:10:32;;;;;;;55.40;18.50;;;;;;;-13.29;55.52;102346.23;130159;1262;106769;-74
2024/01/09 07:13:38;;;;;;;54.40;18.30;;;;;;;-13.22;55.94;102350.88;130478;1264;106583;-74
2024/01/09 07:16:44;;;;;;;64.20;18.40;;;;;;;-13.20;55.94;102351.64;130377;1257;106986;-75
2024/01/09 07:19:49;;;;;;;64.50;19.20;;;;;;;-13.16;55.67;102353.47;130269;1265;108707;-76
2024/01/09 07:22:55;;;;;;;60.00;18.80;;;;;;;-13.10;55.35;102358.14;130266;1261;108732;-76
2024/01/09 07:26:00;;;;;;;73.10;19.70;;;;;;;-13.05;55.84;102363.08;130151;1263;107693;-77
2024/01/09 07:29:06;;;;;;;62.30;18.30;;;;;;;-13.00;55.82;102365.80;130263;1264;106841;-75
2024/01/09 07:32:12;;;;;;;65.30;19.90;;;;;;;-12.96;55.48;102359.24;130187;1264;108670;-75
2024/01/09 07:35:17;;;;;;;63.00;18.50;;;;;;;-12.89;55.47;102361.52;130269;1264;106971;-75
2024/01/09 07:38:24;;;;;;;69.50;20.90;;;;;;;-12.81;55.48;102364.84;130197;1264;107057;-75
2024/01/09 07:41:30;;;;;;;70.80;22.70;;;;;;;-12.70;55.54;102366.88;130191;1264;106698;-74
2024/01/09 07:44:36;;;;;;;82.70;23.30;;;;;;;-12.59;55.81;102366.33;130261;1265;106884;-75
2024/01/09 07:47:41;;;;;;;88.00;25.30;;;;;;;-12.52;55.84;102367.22;130193;1265;107180;-75
2024/01/09 07:50:47;;;;;;;110.30;30.80;;;;;;;-12.44;55.87;102368.67;130238;1263;106587;-75
2024/01/09 07:53:53;;;;;;;108.90;31.20;;;;;;;-12.36;55.70;102371.96;130231;1263;107839;-77
2024/01/09 07:56:59;;;;;;;109.20;31.90;;;;;;;-12.23;55.88;102372.00;130604;1257;108712;-73
2024/01/09 08:00:06;;;;;;;100.20;28.90;;;;;;;-12.10;56.52;102381.29;130447;1264;106721;-76
2024/01/09 08:03:17;;;;;;;90.80;26.00;;;;;;;-11.94;56.69;102380.17;130373;1262;107709;-75
2024/01/09 08:06:23;;;;;;;120.40;31.90;;;;;;;-11.82;56.38;102381.48;130357;1271;108232;-75
2024/01/09 08:09:28;;;;;;;109.20;33.50;;;;;;;-11.70;56.70;102383.51;130345;1261;106957;-77
2024/01/09 08:12:34;;;;;;;104.10;31.10;;;;;;;-11.60;56.72;102384.82;130223;1261;107047;-75
2024/01/09 08:15:40;;;;;;;137.00;37.80;;;;;;;-11.46;57.17;102381.06;130124;1277;108465;-75
2024/01/09 08:18:48;;;;;;;158.00;46.60;;;;;;;-11.32;56.80;102376.92;130056;1262;108710;-78
2024/01/09 08:21:53;;;;;;;158.80;44.60;;;;;;;-11.22;56.82;102377.34;130080;1262;108697;-75
2024/01/09 08:25:00;;;;;;;230.70;56.00;;;;;;;-11.13;57.42;102381.83;130036;1265;107648;-75
2024/01/09 08:28:06;;;;;;;170.80;54.20;;;;;;;-11.12;57.29;102384.45;130057;1262;107429;-75
2024/01/09 08:31:12;;;;;;;184.80;54.60;;;;;;;-11.20;57.02;102386.14;130352;1262;106190;-76
2024/01/09 08:34:17;;;;;;;187.50;55.50;;;;;;;-11.29;57.54;102391.59;130139;1265;108393;-76
2024/01/09 08:37:23;;;;;;;121.60;36.40;;;;;;;-11.30;57.87;102399.12;130023;1265;107807;-74
2024/01/09 08:40:29;;;;;;;127.70;37.90;;;;;;;-11.34;58.54;102399.20;130177;1264;107701;-76
2024/01/09 08:43:34;;;;;;;124.60;36.20;;;;;;;-11.37;58.16;102405.30;130057;1268;107007;-75
2024/01/09 08:46:40;;;;;;;134.70;39.00;;;;;;;-11.39;58.72;102398.91;130110;1266;107085;-75
2024/01/09 08:49:46;;;;;;;122.20;36.20;;;;;;;-11.34;58.54;102398.51;130237;1259;108971;-75
2024/01/09 08:52:52;;;;;;;113.60;34.20;;;;;;;-11.23;59.08;102403.42;130201;1273;107669;-79
2024/01/09 08:55:57;;;;;;;90.20;30.20;;;;;;;-11.01;59.83;102402.05;130277;1272;106607;-75
2024/01/09 08:59:03;;;;;;;84.90;27.60;;;;;;;-10.79;59.68;102402.39;130084;1258;106654;-75
2024/01/09 09:02:09;;;;;;;86.50;28.60;;;;;;;-10.57;59.86;102404.42;130110;1264;106391;-75
2024/01/09 09:05:14;;;;;;;81.70;26.40;;;;;;;-10.45;59.53;102404.35;130412;1271;108474;-73
2024/01/09 09:08:21;;;;;;;80.50;29.60;;;;;;;-10.35;59.66;102399.40;130276;1261;106274;-75
2024/01/09 09:11:26;;;;;;;247.30;73.30;;;;;;;-10.15;60.13;102401.33;130352;1259;106341;-74
2024/01/09 09:14:32;;;;;;;260.20;72.50;;;;;;;-9.92;60.13;102396.10;130326;1261;106846;-74
2024/01/09 09:17:38;;;;;;;197.40;52.70;;;;;;;-9.76;60.17;102395.88;130354;1262;108771;-75
2024/01/09 09:20:44;;;;;;;162.70;45.60;;;;;;;-9.66;60.41;102391.59;130400;1261;108684;-74
2024/01/09 09:23:49;;;;;;;159.60;44.10;;;;;;;-9.53;60.49;102390.95;130326;1262;107428;-75
2024/01/09 09:26:55;;;;;;;176.90;46.90;;;;;;;-9.43;60.48;102389.05;130056;1265;106883;-74
2024/01/09 09:30:01;;;;;;;152.00;42.10;;;;;;;-9.35;60.35;102389.02;130124;1263;108611;-74
2024/01/09 09:33:09;;;;;;;331.00;78.30;;;;;;;-9.28;60.82;102387.94;130231;1264;107855;-73
2024/01/09 09:36:15;;;;;;;259.70;64.60;;;;;;;-9.19;60.85;102386.35;130312;1262;108680;-74
2024/01/09 09:39:21;;;;;;;424.60;99.70;;;;;;;-9.20;60.51;102385.30;130297;1262;108535;-73
2024/01/09 09:42:27;;;;;;;929.70;282.90;;;;;;;-9.23;60.89;102384.40;130320;1261;107244;-74
2024/01/09 09:45:33;;;;;;;220.10;57.20;;;;;;;-9.17;60.75;102379.48;130310;1264;108772;-73
2024/01/09 09:48:40;;;;;;;233.90;56.60;;;;;;;-9.04;60.85;102381.41;130346;1271;108860;-74
2024/01/09 09:51:46;;;;;;;393.80;89.80;;;;;;;-8.88;60.57;102380.97;130345;1263;106328;-75
2024/01/09 09:54:53;;;;;;;677.80;183.20;;;;;;;-8.74;60.05;102374.10;130314;1271;106947;-74
2024/01/09 09:58:00;;;;;;;435.10;104.10;;;;;;;-8.58;60.21;102378.98;130513;1269;107708;-74
2024/01/09 10:01:09;;;;;;;580.00;158.30;;;;;;;-8.44;60.29;102375.88;130486;1261;106914;-75
2024/01/09 10:04:27;;;;;;;643.60;174.30;;;;;;;-8.29;60.44;102370.35;130425;1270;106367;-75
2024/01/09 10:07:38;;;;;;;152.80;45.40;;;;;;;-8.13;60.50;102361.20;130441;1262;108766;-75
2024/01/09 10:10:44;;;;;;;323.30;81.60;;;;;;;-8.00;60.75;102361.18;130330;1262;107654;-74
2024/01/09 10:13:50;;;;;;;274.20;71.70;;;;;;;-7.89;60.36;102354.91;130343;1263;107871;-75
2024/01/09 10:16:56;;;;;;;132.80;40.50;;;;;;;-7.83;60.45;102354.96;130347;1271;108686;-73
2024/01/09 10:20:04;;;;;;;158.90;54.10;;;;;;;-7.86;60.09;102350.27;130373;1271;106835;-74
2024/01/09 10:23:10;;;;;;;170.10;61.10;;;;;;;-7.82;60.00;102349.77;130520;1261;108712;-76
2024/01/09 10:26:15;;;;;;;286.60;95.00;;;;;;;-7.77;60.18;102342.76;130432;1263;106337;-74
2024/01/09 10:29:21;;;;;;;146.50;52.50;;;;;;;-7.73;60.37;102339.17;130374;1261;107231;-77
2024/01/09 10:32:27;;;;;;;94.30;35.90;;;;;;;-7.71;59.82;102344.89;130398;1263;106354;-75
2024/01/09 10:35:32;;;;;;;58.10;23.60;;;;;;;-7.71;59.68;102340.23;130390;1262;108591;-74
2024/01/09 10:38:38;;;;;;;54.60;20.10;;;;;;;-7.70;58.97;102343.16;130494;1262;106327;-74
2024/01/09 10:41:45;;;;;;;46.40;18.60;;;;;;;-7.72;59.98;102344.88;130515;1262;108660;-74
2024/01/09 10:44:51;;;;;;;54.40;21.90;;;;;;;-7.68;59.89;102343.17;130472;1261;107667;-74
2024/01/09 10:47:58;;;;;;;54.10;21.30;;;;;;;-7.65;59.87;102339.08;130476;1262;108535;-74
2024/01/09 10:51:04;;;;;;;64.20;24.50;;;;;;;-7.59;60.39;102335.48;130489;1262;107938;-74
2024/01/09 10:54:17;;;;;;;77.00;30.50;;;;;;;-7.48;59.84;102337.66;130406;1261;108725;-75
2024/01/09 10:57:24;;;;;;;73.50;28.20;;;;;;;-7.36;60.25;102332.23;130465;1271;107795;-73
2024/01/09 11:00:31;;;;;;;85.10;32.70;;;;;;;-7.21;60.51;102328.19;130493;1271;108675;-76
2024/01/09 11:03:37;;;;;;;103.50;41.40;;;;;;;-7.08;60.13;102327.06;130473;1271;108636;-74
2024/01/09 11:06:44;;;;;;;91.60;34.90;;;;;;;-6.90;60.31;102324.06;130386;1263;106876;-74
2024/01/09 11:09:51;;;;;;;87.80;34.60;;;;;;;-6.75;60.41;102323.63;130376;1268;108637;-75
2024/01/09 11:12:57;;;;;;;99.10;37.20;;;;;;;-6.72;60.04;102321.23;130344;1262;106550;-75
2024/01/09 11:16:05;;;;;;;97.60;36.40;;;;;;;-6.77;60.16;102315.33;130454;1271;106990;-74
2024/01/09 11:19:14;;;;;;;91.10;36.00;;;;;;;-6.82;60.34;102315.11;130407;1262;107252;-75
2024/01/09 11:22:20;;;;;;;100.00;34.80;;;;;;;-6.85;60.26;102317.02;130473;1272;106465;-75
2024/01/09 11:25:28;;;;;;;87.30;33.10;;;;;;;-6.88;60.98;102312.84;130335;1257;107059;-75
2024/01/09 11:28:43;;;;;;;85.70;33.70;;;;;;;-6.87;60.79;102312.85;130335;1259;106705;-75
2024/01/09 11:31:49;;;;;;;87.50;35.00;;;;;;;-6.93;60.05;102308.31;130390;1263;107700;-75
2024/01/09 11:35:13;;;;;;;106.50;38.70;;;;;;;-7.05;60.43;102306.69;130371;1264;106215;-76
2024/01/09 11:38:21;;;;;;;86.10;32.40;;;;;;;-7.11;60.61;102305.61;130343;1262;106348;-75
2024/01/09 11:41:34;;;;;;;112.00;36.30;;;;;;;-7.13;60.75;102309.58;130390;1258;107305;-75
2024/01/09 11:44:39;;;;;;;78.00;29.90;;;;;;;-7.09;61.08;102304.06;130419;1263;108522;-75
2024/01/09 11:47:45;;;;;;;110.10;36.70;;;;;;;-7.04;60.93;102302.02;130353;1263;106672;-75
2024/01/09 11:50:51;;;;;;;87.00;30.50;;;;;;;-6.97;60.95;102296.17;130423;1271;107681;-75
2024/01/09 11:53:58;;;;;;;71.00;27.40;;;;;;;-6.86;60.87;102291.73;130297;1264;106640;-75
2024/01/09 11:57:05;;;;;;;76.60;30.60;;;;;;;-6.71;60.77;102288.86;130393;1263;108673;-75
2024/01/09 12:00:13;;;;;;;85.10;32.20;;;;;;;-6.59;59.99;102291.69;130332;1264;108666;-76
2024/01/09 12:03:19;;;;;;;102.30;36.40;;;;;;;-6.49;60.30;102287.05;130354;1262;107702;-75
2024/01/09 12:06:26;;;;;;;113.30;44.00;;;;;;;-6.39;60.33;102287.43;130423;1262;106287;-75
2024/01/09 12:09:32;;;;;;;104.20;40.80;;;;;;;-6.32;60.58;102283.13;130415;1258;106328;-75
2024/01/09 12:12:38;;;;;;;82.20;32.30;;;;;;;-6.25;60.40;102285.56;130361;1261;108642;-75
2024/01/09 12:15:45;;;;;;;83.90;34.70;;;;;;;-6.25;59.71;102284.70;130391;1259;107405;-74
2024/01/09 12:18:55;;;;;;;71.70;29.50;;;;;;;-6.22;60.39;102278.47;130368;1272;108666;-75
2024/01/09 12:22:01;;;;;;;78.00;31.30;;;;;;;-6.23;60.34;102276.05;130387;1263;108093;-75
2024/01/09 12:25:09;;;;;;;71.90;28.40;;;;;;;-6.24;60.24;102271.88;130352;1271;108627;-75
2024/01/09 12:28:15;;;;;;;65.90;27.20;;;;;;;-6.22;60.43;102268.43;130372;1258;106619;-75
2024/01/09 12:31:23;;;;;;;67.00;26.80;;;;;;;-6.22;60.58;102270.50;130367;1264;106173;-75
2024/01/09 12:34:29;;;;;;;70.90;29.10;;;;;;;-6.24;59.81;102264.96;130517;1257;107646;-75
2024/01/09 12:37:35;;;;;;;82.00;30.60;;;;;;;-6.24;59.94;102269.30;130513;1261;108118;-75
2024/01/09 12:40:41;;;;;;;80.00;29.00;;;;;;;-6.27;59.38;102271.89;130476;1263;107344;-75
2024/01/09 12:43:46;;;;;;;68.80;27.30;;;;;;;-6.32;59.51;102274.48;130541;1271;106414;-75
2024/01/09 12:46:52;;;;;;;91.00;37.40;;;;;;;-6.34;59.52;102268.05;130412;1263;105566;-74
2024/01/09 12:49:58;;;;;;;79.70;31.40;;;;;;;-6.34;60.22;102268.75;130453;1260;106972;-75
2024/01/09 12:53:04;;;;;;;67.90;28.90;;;;;;;-6.34;59.67;102264.06;130444;1271;107808;-74
2024/01/09 12:56:13;;;;;;;67.50;27.40;;;;;;;-6.33;59.85;102272.73;130452;1269;107827;-74
2024/01/09 12:59:22;;;;;;;64.20;26.60;;;;;;;-6.32;59.88;102268.92;130295;1261;108659;-74
2024/01/09 13:02:28;;;;;;;743.10;210.60;;;;;;;-6.31;60.10;102263.38;130298;1270;106554;-75
2024/01/09 13:05:33;;;;;;;130.80;42.50;;;;;;;-6.30;60.04;102266.15;130643;1261;108469;-75
2024/01/09 13:08:40;;;;;;;87.80;32.40;;;;;;;-6.35;60.02;102261.46;130411;1261;106693;-74
2024/01/09 13:11:46;;;;;;;68.20;28.10;;;;;;;-6.37;60.08;102252.64;130376;1261;108636;-74
2024/01/09 13:14:51;;;;;;;70.20;28.50;;;;;;;-6.39;59.31;102256.61;130409;1263;108358;-75
2024/01/09 13:17:57;;;;;;;62.90;25.40;;;;;;;-6.39;59.67;102253.31;130471;1260;108783;-75
2024/01/09 13:21:03;;;;;;;71.80;27.40;;;;;;;-6.39;59.66;102252.80;130429;1271;106516;-76
2024/01/09 13:24:09;;;;;;;76.00;26.60;;;;;;;-6.37;59.94;102246.05;130386;1264;108351;-75
2024/01/09 13:27:14;;;;;;;445.60;152.60;;;;;;;-6.30;59.81;102242.96;130476;1265;107225;-75
2024/01/09 13:30:20;;;;;;;88.10;32.00;;;;;;;-6.20;60.03;102245.56;130482;1269;106360;-75
2024/01/09 13:33:25;;;;;;;73.80;26.70;;;;;;;-6.09;59.49;102244.89;130326;1262;106223;-75
2024/01/09 13:36:31;;;;;;;155.70;49.40;;;;;;;-5.99;59.57;102240.91;130437;1260;107583;-75
2024/01/09 13:39:37;;;;;;;479.10;131.50;;;;;;;-5.88;59.81;102244.02;130361;1265;106401;-76